sensor_id;sensor_type;location;lat;lon;timestamp;pressure;altitude;pressure_sealevel;temperature;humidity
55468;BME280;41332;42.702;23.200;2023-08-08T00:01:52;93845.69;;;15.04;86.38
55468;BME280;41332;42.702;23.200;2023-08-08T00:04:17;93850.09;;;14.96;84.48
55468;BME280;41332;42.702;23.200;2023-08-08T00:06:43;93852.63;;;14.89;84.26
55468;BME280;41332;42.702;23.200;2023-08-08T00:09:08;93849.47;;;14.80;83.25
55468;BME280;41332;42.702;23.200;2023-08-08T00:11:33;93859.59;;;14.78;82.93
55468;BME280;41332;42.702;23.200;2023-08-08T00:13:59;93851.94;;;14.69;84.47
55468;BME280;41332;42.702;23.200;2023-08-08T00:16:24;93862.50;;;14.69;84.57
55468;BME280;41332;42.702;23.200;2023-08-08T00:18:50;93853.50;;;14.54;84.46
55468;BME280;41332;42.702;23.200;2023-08-08T00:21:18;93855.69;;;14.48;83.78
55468;BME280;41332;42.702;23.200;2023-08-08T00:23:44;93860.34;;;14.36;84.15
55468;BME280;41332;42.702;23.200;2023-08-08T00:26:09;93859.19;;;14.33;84.88
55468;BME280;41332;42.702;23.200;2023-08-08T00:28:34;93868.22;;;14.32;85.42
55468;BME280;41332;42.702;23.200;2023-08-08T00:31:00;93858.28;;;14.25;85.52
55468;BME280;41332;42.702;23.200;2023-08-08T00:33:25;93863.75;;;14.16;86.64
55468;BME280;41332;42.702;23.200;2023-08-08T00:35:50;93865.97;;;14.14;87.07
55468;BME280;41332;42.702;23.200;2023-08-08T00:38:16;93855.75;;;14.13;86.42
55468;BME280;41332;42.702;23.200;2023-08-08T00:40:43;93869.75;;;14.13;86.22
55468;BME280;41332;42.702;23.200;2023-08-08T00:43:08;93854.59;;;14.10;86.51
55468;BME280;41332;42.702;23.200;2023-08-08T00:45:34;93878.63;;;14.05;85.81
55468;BME280;41332;42.702;23.200;2023-08-08T00:47:59;93877.38;;;13.99;86.50
55468;BME280;41332;42.702;23.200;2023-08-08T00:50:25;93870.69;;;13.85;87.14
55468;BME280;41332;42.702;23.200;2023-08-08T00:52:53;93865.28;;;13.78;87.05
55468;BME280;41332;42.702;23.200;2023-08-08T00:55:19;93876.50;;;13.75;86.92
55468;BME280;41332;42.702;23.200;2023-08-08T00:57:45;93882.78;;;13.87;86.33
55468;BME280;41332;42.702;23.200;2023-08-08T01:00:11;93881.56;;;13.64;88.28
55468;BME280;41332;42.702;23.200;2023-08-08T01:02:37;93876.56;;;13.59;88.06
55468;BME280;41332;42.702;23.200;2023-08-08T01:05:03;93893.13;;;13.60;88.12
55468;BME280;41332;42.702;23.200;2023-08-08T01:10:09;93892.78;;;13.61;88.95
55468;BME280;41332;42.702;23.200;2023-08-08T01:12:48;93893.31;;;13.51;89.09
55468;BME280;41332;42.702;23.200;2023-08-08T01:15:16;93898.44;;;13.44;89.32
55468;BME280;41332;42.702;23.200;2023-08-08T01:17:43;93891.16;;;13.37;89.33
55468;BME280;41332;42.702;23.200;2023-08-08T01:20:09;93899.34;;;13.35;89.75
55468;BME280;41332;42.702;23.200;2023-08-08T01:22:39;93890.94;;;13.30;89.69
55468;BME280;41332;42.702;23.200;2023-08-08T01:25:06;93904.63;;;13.35;89.63
55468;BME280;41332;42.702;23.200;2023-08-08T01:27:33;93898.41;;;13.28;90.12
55468;BME280;41332;42.702;23.200;2023-08-08T01:29:58;93906.41;;;13.31;89.93
55468;BME280;41332;42.702;23.200;2023-08-08T01:32:24;93918.41;;;13.29;89.78
55468;BME280;41332;42.702;23.200;2023-08-08T01:34:49;93917.66;;;13.28;89.83
55468;BME280;41332;42.702;23.200;2023-08-08T01:37:19;93924.53;;;13.33;90.10
55468;BME280;41332;42.702;23.200;2023-08-08T01:39:46;93915.88;;;13.32;90.23
55468;BME280;41332;42.702;23.200;2023-08-08T01:42:13;93927.72;;;13.39;89.70
55468;BME280;41332;42.702;23.200;2023-08-08T01:44:41;93929.59;;;13.38;89.70
55468;BME280;41332;42.702;23.200;2023-08-08T01:47:07;93930.25;;;13.35;89.83
55468;BME280;41332;42.702;23.200;2023-08-08T01:49:33;93924.66;;;13.37;90.22
55468;BME280;41332;42.702;23.200;2023-08-08T01:51:58;93924.47;;;13.45;89.56
55468;BME280;41332;42.702;23.200;2023-08-08T01:54:23;93927.13;;;13.45;89.77
55468;BME280;41332;42.702;23.200;2023-08-08T01:56:49;93931.28;;;13.46;91.33
55468;BME280;41332;42.702;23.200;2023-08-08T01:59:14;93928.31;;;13.32;90.22
55468;BME280;41332;42.702;23.200;2023-08-08T02:01:40;93923.22;;;13.39;90.39
55468;BME280;41332;42.702;23.200;2023-08-08T02:04:05;93933.94;;;13.46;90.99
55468;BME280;41332;42.702;23.200;2023-08-08T02:06:30;93945.00;;;13.52;90.82
55468;BME280;41332;42.702;23.200;2023-08-08T02:08:56;93942.69;;;13.50;90.50
55468;BME280;41332;42.702;23.200;2023-08-08T02:11:21;93940.16;;;13.54;91.27
55468;BME280;41332;42.702;23.200;2023-08-08T02:13:47;93946.53;;;13.53;91.24
55468;BME280;41332;42.702;23.200;2023-08-08T02:16:12;93954.78;;;13.51;90.92
55468;BME280;41332;42.702;23.200;2023-08-08T02:18:38;93952.25;;;13.55;91.30
55468;BME280;41332;42.702;23.200;2023-08-08T02:21:06;93952.25;;;13.55;90.85
55468;BME280;41332;42.702;23.200;2023-08-08T02:23:32;93954.53;;;13.57;91.76
55468;BME280;41332;42.702;23.200;2023-08-08T02:25:58;93951.13;;;13.40;91.34
55468;BME280;41332;42.702;23.200;2023-08-08T02:28:23;93960.47;;;13.38;91.72
55468;BME280;41332;42.702;23.200;2023-08-08T02:30:48;93974.09;;;13.40;92.78
55468;BME280;41332;42.702;23.200;2023-08-08T02:33:14;93971.22;;;13.45;92.58
55468;BME280;41332;42.702;23.200;2023-08-08T02:35:39;93956.75;;;13.39;91.92
55468;BME280;41332;42.702;23.200;2023-08-08T02:38:05;93955.38;;;13.45;91.29
55468;BME280;41332;42.702;23.200;2023-08-08T02:40:30;93963.63;;;13.43;91.50
55468;BME280;41332;42.702;23.200;2023-08-08T02:42:56;93962.88;;;13.43;91.82
55468;BME280;41332;42.702;23.200;2023-08-08T02:45:21;93958.41;;;13.31;91.03
55468;BME280;41332;42.702;23.200;2023-08-08T02:47:46;93979.69;;;13.38;91.81
55468;BME280;41332;42.702;23.200;2023-08-08T02:50:12;93977.06;;;13.38;92.06
55468;BME280;41332;42.702;23.200;2023-08-08T02:52:37;93991.13;;;13.42;92.65
55468;BME280;41332;42.702;23.200;2023-08-08T02:55:03;93980.81;;;13.53;92.68
55468;BME280;41332;42.702;23.200;2023-08-08T02:57:28;93982.72;;;13.52;91.50
55468;BME280;41332;42.702;23.200;2023-08-08T02:59:53;93987.13;;;13.48;91.63
55468;BME280;41332;42.702;23.200;2023-08-08T03:02:19;93985.50;;;13.44;92.15
55468;BME280;41332;42.702;23.200;2023-08-08T03:04:44;93989.75;;;13.48;92.38
55468;BME280;41332;42.702;23.200;2023-08-08T03:07:10;93981.09;;;13.48;92.53
55468;BME280;41332;42.702;23.200;2023-08-08T03:09:35;93993.31;;;13.56;92.29
55468;BME280;41332;42.702;23.200;2023-08-08T03:12:01;93990.38;;;13.58;92.23
55468;BME280;41332;42.702;23.200;2023-08-08T03:14:27;93998.19;;;13.54;91.93
55468;BME280;41332;42.702;23.200;2023-08-08T03:16:52;93999.53;;;13.48;91.42
55468;BME280;41332;42.702;23.200;2023-08-08T03:19:18;94005.31;;;13.54;91.82
55468;BME280;41332;42.702;23.200;2023-08-08T03:21:43;93993.44;;;13.44;90.77
55468;BME280;41332;42.702;23.200;2023-08-08T03:24:08;93996.91;;;13.48;91.50
55468;BME280;41332;42.702;23.200;2023-08-08T03:26:34;94007.03;;;13.46;90.94
55468;BME280;41332;42.702;23.200;2023-08-08T03:28:59;94010.44;;;13.46;91.27
55468;BME280;41332;42.702;23.200;2023-08-08T03:31:24;93989.59;;;13.41;91.19
55468;BME280;41332;42.702;23.200;2023-08-08T03:33:51;93996.47;;;13.46;91.56
55468;BME280;41332;42.702;23.200;2023-08-08T03:36:16;94000.25;;;13.45;92.20
55468;BME280;41332;42.702;23.200;2023-08-08T03:38:42;94006.09;;;13.54;92.21
55468;BME280;41332;42.702;23.200;2023-08-08T03:41:11;94011.47;;;13.58;91.39
55468;BME280;41332;42.702;23.200;2023-08-08T03:43:38;94008.06;;;13.57;90.28
55468;BME280;41332;42.702;23.200;2023-08-08T03:46:03;94012.22;;;13.58;90.43
55468;BME280;41332;42.702;23.200;2023-08-08T03:48:29;94007.41;;;13.60;90.78
55468;BME280;41332;42.702;23.200;2023-08-08T03:50:54;93996.41;;;13.58;90.42
55468;BME280;41332;42.702;23.200;2023-08-08T03:53:19;94000.00;;;13.50;90.81
55468;BME280;41332;42.702;23.200;2023-08-08T03:55:45;94004.56;;;13.53;90.82
55468;BME280;41332;42.702;23.200;2023-08-08T03:58:10;94002.19;;;13.48;90.63
55468;BME280;41332;42.702;23.200;2023-08-08T04:00:36;94014.94;;;13.46;89.62
55468;BME280;41332;42.702;23.200;2023-08-08T04:03:02;94017.41;;;13.39;89.71
55468;BME280;41332;42.702;23.200;2023-08-08T04:05:28;94023.78;;;13.38;90.28
55468;BME280;41332;42.702;23.200;2023-08-08T04:07:53;94030.94;;;13.37;90.07
55468;BME280;41332;42.702;23.200;2023-08-08T04:10:19;94027.53;;;13.37;90.51
55468;BME280;41332;42.702;23.200;2023-08-08T04:12:44;94033.09;;;13.47;90.66
55468;BME280;41332;42.702;23.200;2023-08-08T04:15:09;94020.91;;;13.43;90.57
55468;BME280;41332;42.702;23.200;2023-08-08T04:17:35;94027.03;;;13.47;90.21
55468;BME280;41332;42.702;23.200;2023-08-08T04:20:00;94035.47;;;13.52;90.63
55468;BME280;41332;42.702;23.200;2023-08-08T04:22:26;94036.31;;;13.57;90.54
55468;BME280;41332;42.702;23.200;2023-08-08T04:24:51;94036.06;;;13.62;90.25
55468;BME280;41332;42.702;23.200;2023-08-08T04:27:17;94044.09;;;13.65;90.71
55468;BME280;41332;42.702;23.200;2023-08-08T04:29:42;94043.06;;;13.70;90.09
55468;BME280;41332;42.702;23.200;2023-08-08T04:32:07;94045.28;;;13.68;89.25
55468;BME280;41332;42.702;23.200;2023-08-08T04:34:33;94037.28;;;13.64;89.99
55468;BME280;41332;42.702;23.200;2023-08-08T04:36:58;94021.69;;;13.59;90.01
55468;BME280;41332;42.702;23.200;2023-08-08T04:39:24;94005.00;;;13.55;89.19
55468;BME280;41332;42.702;23.200;2023-08-08T04:41:49;94023.81;;;13.70;89.89
55468;BME280;41332;42.702;23.200;2023-08-08T04:44:14;94032.59;;;13.74;90.12
55468;BME280;41332;42.702;23.200;2023-08-08T04:46:40;94041.94;;;13.87;90.90
55468;BME280;41332;42.702;23.200;2023-08-08T04:49:05;94035.47;;;14.00;90.24
55468;BME280;41332;42.702;23.200;2023-08-08T04:51:30;94049.88;;;14.03;89.95
55468;BME280;41332;42.702;23.200;2023-08-08T04:53:56;94064.94;;;14.02;89.13
55468;BME280;41332;42.702;23.200;2023-08-08T04:56:21;94070.56;;;14.01;88.99
55468;BME280;41332;42.702;23.200;2023-08-08T04:58:47;94079.06;;;14.10;88.06
55468;BME280;41332;42.702;23.200;2023-08-08T05:01:12;94094.16;;;14.10;87.25
55468;BME280;41332;42.702;23.200;2023-08-08T05:03:40;94090.91;;;14.16;86.67
55468;BME280;41332;42.702;23.200;2023-08-08T05:06:05;94096.09;;;14.13;86.16
55468;BME280;41332;42.702;23.200;2023-08-08T05:08:30;94112.09;;;14.36;85.99
55468;BME280;41332;42.702;23.200;2023-08-08T05:10:56;94114.91;;;14.43;85.28
55468;BME280;41332;42.702;23.200;2023-08-08T05:13:21;94109.00;;;14.66;84.67
55468;BME280;41332;42.702;23.200;2023-08-08T05:15:46;94093.22;;;14.70;83.96
55468;BME280;41332;42.702;23.200;2023-08-08T05:18:12;94101.81;;;15.02;85.04
55468;BME280;41332;42.702;23.200;2023-08-08T05:20:37;94085.88;;;14.98;83.56
55468;BME280;41332;42.702;23.200;2023-08-08T05:23:03;94104.19;;;15.07;82.20
55468;BME280;41332;42.702;23.200;2023-08-08T05:25:28;94097.72;;;15.05;82.66
55468;BME280;41332;42.702;23.200;2023-08-08T05:27:53;94124.78;;;15.18;83.33
55468;BME280;41332;42.702;23.200;2023-08-08T05:30:19;94134.06;;;15.27;82.49
55468;BME280;41332;42.702;23.200;2023-08-08T05:32:44;94138.66;;;15.30;81.51
55468;BME280;41332;42.702;23.200;2023-08-08T05:35:10;94145.06;;;15.29;81.12
55468;BME280;41332;42.702;23.200;2023-08-08T05:37:35;94145.47;;;15.31;80.31
55468;BME280;41332;42.702;23.200;2023-08-08T05:40:00;94139.09;;;15.32;80.63
55468;BME280;41332;42.702;23.200;2023-08-08T05:42:26;94149.94;;;15.47;81.91
55468;BME280;41332;42.702;23.200;2023-08-08T05:44:51;94151.88;;;15.50;80.54
55468;BME280;41332;42.702;23.200;2023-08-08T05:47:16;94151.31;;;15.21;81.03
55468;BME280;41332;42.702;23.200;2023-08-08T05:49:42;94151.41;;;15.05;79.77
55468;BME280;41332;42.702;23.200;2023-08-08T05:52:08;94147.97;;;15.05;80.12
55468;BME280;41332;42.702;23.200;2023-08-08T05:54:34;94145.31;;;15.05;79.59
55468;BME280;41332;42.702;23.200;2023-08-08T05:57:02;94148.09;;;14.92;80.18
55468;BME280;41332;42.702;23.200;2023-08-08T05:59:28;94160.97;;;14.94;81.22
55468;BME280;41332;42.702;23.200;2023-08-08T06:01:53;94165.91;;;14.95;81.39
55468;BME280;41332;42.702;23.200;2023-08-08T06:04:18;94170.84;;;14.97;80.50
55468;BME280;41332;42.702;23.200;2023-08-08T06:06:44;94172.28;;;15.10;81.36
55468;BME280;41332;42.702;23.200;2023-08-08T06:09:09;94166.22;;;15.29;81.87
55468;BME280;41332;42.702;23.200;2023-08-08T06:11:35;94168.88;;;15.49;79.43
55468;BME280;41332;42.702;23.200;2023-08-08T06:14:00;94158.31;;;15.72;78.34
55468;BME280;41332;42.702;23.200;2023-08-08T06:16:26;94147.72;;;15.92;77.23
55468;BME280;41332;42.702;23.200;2023-08-08T06:18:52;94143.03;;;15.81;75.54
55468;BME280;41332;42.702;23.200;2023-08-08T06:21:17;94155.00;;;15.95;75.52
55468;BME280;41332;42.702;23.200;2023-08-08T06:23:43;94146.53;;;16.09;75.85
55468;BME280;41332;42.702;23.200;2023-08-08T06:26:08;94153.16;;;16.22;76.17
55468;BME280;41332;42.702;23.200;2023-08-08T06:28:34;94158.88;;;16.47;75.73
55468;BME280;41332;42.702;23.200;2023-08-08T06:31:00;94156.47;;;16.65;74.59
55468;BME280;41332;42.702;23.200;2023-08-08T06:33:26;94171.69;;;16.69;72.84
55468;BME280;41332;42.702;23.200;2023-08-08T06:35:51;94168.91;;;16.61;69.06
55468;BME280;41332;42.702;23.200;2023-08-08T06:38:17;94183.28;;;16.60;69.55
55468;BME280;41332;42.702;23.200;2023-08-08T06:40:43;94183.53;;;17.02;69.45
55468;BME280;41332;42.702;23.200;2023-08-08T06:43:08;94179.84;;;17.10;65.92
55468;BME280;41332;42.702;23.200;2023-08-08T06:45:33;94169.84;;;17.30;65.76
55468;BME280;41332;42.702;23.200;2023-08-08T06:48:00;94167.66;;;17.36;65.26
55468;BME280;41332;42.702;23.200;2023-08-08T06:50:25;94176.50;;;17.47;65.09
55468;BME280;41332;42.702;23.200;2023-08-08T06:52:51;94176.88;;;17.45;63.94
55468;BME280;41332;42.702;23.200;2023-08-08T06:55:16;94178.09;;;17.52;65.63
55468;BME280;41332;42.702;23.200;2023-08-08T06:57:42;94184.53;;;17.51;62.16
55468;BME280;41332;42.702;23.200;2023-08-08T07:00:08;94189.56;;;17.59;64.82
55468;BME280;41332;42.702;23.200;2023-08-08T07:02:34;94184.34;;;17.70;62.94
55468;BME280;41332;42.702;23.200;2023-08-08T07:04:59;94184.97;;;17.56;62.30
55468;BME280;41332;42.702;23.200;2023-08-08T07:07:25;94184.34;;;17.67;62.21
55468;BME280;41332;42.702;23.200;2023-08-08T07:09:50;94178.34;;;17.73;61.32
55468;BME280;41332;42.702;23.200;2023-08-08T07:12:15;94181.50;;;17.86;63.65
55468;BME280;41332;42.702;23.200;2023-08-08T07:14:41;94188.91;;;17.70;61.91
55468;BME280;41332;42.702;23.200;2023-08-08T07:17:06;94183.50;;;17.62;59.55
55468;BME280;41332;42.702;23.200;2023-08-08T07:19:32;94176.69;;;17.61;60.03
55468;BME280;41332;42.702;23.200;2023-08-08T07:21:57;94174.31;;;17.53;59.91
55468;BME280;41332;42.702;23.200;2023-08-08T07:24:22;94172.41;;;17.53;59.59
55468;BME280;41332;42.702;23.200;2023-08-08T07:26:51;94168.88;;;17.76;59.76
55468;BME280;41332;42.702;23.200;2023-08-08T07:29:17;94177.00;;;17.90;59.69
55468;BME280;41332;42.702;23.200;2023-08-08T07:31:42;94175.22;;;17.64;58.44
55468;BME280;41332;42.702;23.200;2023-08-08T07:34:08;94180.25;;;17.76;57.93
55468;BME280;41332;42.702;23.200;2023-08-08T07:36:33;94181.09;;;17.84;57.28
55468;BME280;41332;42.702;23.200;2023-08-08T07:38:58;94174.69;;;17.89;57.56
55468;BME280;41332;42.702;23.200;2023-08-08T07:41:29;94174.56;;;17.78;57.53
55468;BME280;41332;42.702;23.200;2023-08-08T07:43:55;94173.06;;;17.77;58.50
55468;BME280;41332;42.702;23.200;2023-08-08T07:46:20;94180.13;;;18.00;56.55
55468;BME280;41332;42.702;23.200;2023-08-08T07:48:46;94167.19;;;18.36;60.80
55468;BME280;41332;42.702;23.200;2023-08-08T07:51:11;94175.06;;;18.28;57.50
55468;BME280;41332;42.702;23.200;2023-08-08T07:53:36;94169.75;;;18.25;56.81
55468;BME280;41332;42.702;23.200;2023-08-08T07:56:02;94170.25;;;18.41;56.33
55468;BME280;41332;42.702;23.200;2023-08-08T07:58:27;94175.22;;;18.47;57.43
55468;BME280;41332;42.702;23.200;2023-08-08T08:00:53;94173.78;;;18.56;57.22
55468;BME280;41332;42.702;23.200;2023-08-08T08:03:19;94181.06;;;18.63;57.29
55468;BME280;41332;42.702;23.200;2023-08-08T08:05:44;94178.91;;;18.31;59.39
55468;BME280;41332;42.702;23.200;2023-08-08T08:08:10;94174.03;;;17.95;56.19
55468;BME280;41332;42.702;23.200;2023-08-08T08:10:35;94176.75;;;17.69;54.62
55468;BME280;41332;42.702;23.200;2023-08-08T08:13:01;94171.56;;;17.79;56.35
55468;BME280;41332;42.702;23.200;2023-08-08T08:15:27;94163.59;;;18.17;55.58
55468;BME280;41332;42.702;23.200;2023-08-08T08:17:53;94169.56;;;18.48;56.26
55468;BME280;41332;42.702;23.200;2023-08-08T08:20:18;94170.50;;;18.77;55.31
55468;BME280;41332;42.702;23.200;2023-08-08T08:22:44;94167.22;;;18.91;54.80
55468;BME280;41332;42.702;23.200;2023-08-08T08:25:10;94172.59;;;18.99;54.52
55468;BME280;41332;42.702;23.200;2023-08-08T08:27:36;94168.84;;;19.10;57.14
55468;BME280;41332;42.702;23.200;2023-08-08T08:30:05;94179.13;;;19.19;53.40
55468;BME280;41332;42.702;23.200;2023-08-08T08:32:35;94180.53;;;18.95;56.66
55468;BME280;41332;42.702;23.200;2023-08-08T08:35:04;94181.81;;;19.19;56.76
55468;BME280;41332;42.702;23.200;2023-08-08T08:37:31;94179.91;;;19.16;53.62
55468;BME280;41332;42.702;23.200;2023-08-08T08:39:56;94175.41;;;19.27;55.44
55468;BME280;41332;42.702;23.200;2023-08-08T08:42:22;94160.59;;;19.34;54.38
55468;BME280;41332;42.702;23.200;2023-08-08T08:44:49;94182.97;;;19.22;54.01
55468;BME280;41332;42.702;23.200;2023-08-08T08:47:17;94174.94;;;19.15;52.41
55468;BME280;41332;42.702;23.200;2023-08-08T08:49:43;94172.69;;;19.20;52.41
55468;BME280;41332;42.702;23.200;2023-08-08T08:52:11;94168.88;;;19.14;51.62
55468;BME280;41332;42.702;23.200;2023-08-08T08:54:37;94169.72;;;19.36;53.46
55468;BME280;41332;42.702;23.200;2023-08-08T08:57:03;94166.34;;;19.47;54.72
55468;BME280;41332;42.702;23.200;2023-08-08T08:59:29;94166.25;;;19.25;51.72
55468;BME280;41332;42.702;23.200;2023-08-08T09:01:55;94169.00;;;19.43;51.45
55468;BME280;41332;42.702;23.200;2023-08-08T09:04:22;94164.53;;;19.76;53.42
55468;BME280;41332;42.702;23.200;2023-08-08T09:06:48;94165.38;;;19.98;53.07
55468;BME280;41332;42.702;23.200;2023-08-08T09:09:14;94169.19;;;19.93;53.66
55468;BME280;41332;42.702;23.200;2023-08-08T09:11:43;94166.50;;;19.93;52.19
55468;BME280;41332;42.702;23.200;2023-08-08T09:14:20;94173.34;;;19.98;52.85
55468;BME280;41332;42.702;23.200;2023-08-08T09:16:46;94164.25;;;20.21;52.94
55468;BME280;41332;42.702;23.200;2023-08-08T09:19:13;94167.72;;;20.36;51.06
55468;BME280;41332;42.702;23.200;2023-08-08T09:21:38;94162.75;;;20.23;51.94
55468;BME280;41332;42.702;23.200;2023-08-08T09:24:07;94167.31;;;20.23;50.61
55468;BME280;41332;42.702;23.200;2023-08-08T09:26:32;94168.06;;;20.52;49.44
55468;BME280;41332;42.702;23.200;2023-08-08T09:29:00;94168.47;;;20.51;49.07
55468;BME280;41332;42.702;23.200;2023-08-08T09:31:25;94168.09;;;20.70;51.28
55468;BME280;41332;42.702;23.200;2023-08-08T09:33:51;94173.84;;;20.76;48.66
55468;BME280;41332;42.702;23.200;2023-08-08T09:36:18;94167.72;;;20.50;48.41
55468;BME280;41332;42.702;23.200;2023-08-08T09:38:46;94166.56;;;20.58;48.46
55468;BME280;41332;42.702;23.200;2023-08-08T09:41:12;94162.72;;;20.67;47.03
55468;BME280;41332;42.702;23.200;2023-08-08T09:43:37;94172.69;;;20.70;48.84
55468;BME280;41332;42.702;23.200;2023-08-08T09:46:03;94177.63;;;20.79;49.51
55468;BME280;41332;42.702;23.200;2023-08-08T09:48:30;94178.75;;;20.85;46.07
55468;BME280;41332;42.702;23.200;2023-08-08T09:51:01;94170.38;;;20.86;46.97
55468;BME280;41332;42.702;23.200;2023-08-08T09:53:27;94175.31;;;21.10;45.54
55468;BME280;41332;42.702;23.200;2023-08-08T09:55:54;94173.03;;;21.01;46.83
55468;BME280;41332;42.702;23.200;2023-08-08T09:58:21;94170.69;;;21.21;45.59
55468;BME280;41332;42.702;23.200;2023-08-08T10:00:49;94171.06;;;21.19;44.71
55468;BME280;41332;42.702;23.200;2023-08-08T10:03:18;94165.31;;;21.32;46.35
55468;BME280;41332;42.702;23.200;2023-08-08T10:05:44;94167.94;;;21.43;45.68
55468;BME280;41332;42.702;23.200;2023-08-08T10:08:09;94173.63;;;21.52;44.15
55468;BME280;41332;42.702;23.200;2023-08-08T10:10:36;94162.25;;;21.30;44.88
55468;BME280;41332;42.702;23.200;2023-08-08T10:13:02;94164.19;;;21.26;45.36
55468;BME280;41332;42.702;23.200;2023-08-08T10:15:28;94162.25;;;21.26;44.63
55468;BME280;41332;42.702;23.200;2023-08-08T10:17:56;94166.44;;;21.34;46.32
55468;BME280;41332;42.702;23.200;2023-08-08T10:20:24;94162.19;;;21.44;44.38
55468;BME280;41332;42.702;23.200;2023-08-08T10:22:52;94165.28;;;21.43;43.95
55468;BME280;41332;42.702;23.200;2023-08-08T10:25:29;94166.03;;;21.43;46.29
55468;BME280;41332;42.702;23.200;2023-08-08T10:28:05;94171.34;;;21.58;45.79
55468;BME280;41332;42.702;23.200;2023-08-08T10:31:15;94172.09;;;21.62;45.54
55468;BME280;41332;42.702;23.200;2023-08-08T10:33:41;94173.16;;;21.75;43.12
55468;BME280;41332;42.702;23.200;2023-08-08T10:36:08;94158.69;;;21.72;46.74
55468;BME280;41332;42.702;23.200;2023-08-08T10:41:09;94164.41;;;21.71;43.74
55468;BME280;41332;42.702;23.200;2023-08-08T10:43:35;94163.28;;;21.68;43.49
55468;BME280;41332;42.702;23.200;2023-08-08T10:46:02;94160.22;;;21.66;43.94
55468;BME280;41332;42.702;23.200;2023-08-08T10:48:28;94161.66;;;21.89;43.57
55468;BME280;41332;42.702;23.200;2023-08-08T10:51:08;94157.19;;;21.64;43.22
55468;BME280;41332;42.702;23.200;2023-08-08T10:53:33;94161.72;;;21.78;43.93
55468;BME280;41332;42.702;23.200;2023-08-08T10:56:00;94148.78;;;21.62;42.98
55468;BME280;41332;42.702;23.200;2023-08-08T10:58:47;94152.09;;;21.88;45.92
55468;BME280;41332;42.702;23.200;2023-08-08T11:01:13;94150.19;;;21.88;44.34
55468;BME280;41332;42.702;23.200;2023-08-08T11:03:40;94161.97;;;22.02;43.51
55468;BME280;41332;42.702;23.200;2023-08-08T11:06:07;94146.69;;;21.99;43.06
55468;BME280;41332;42.702;23.200;2023-08-08T11:08:34;94151.59;;;22.08;43.03
55468;BME280;41332;42.702;23.200;2023-08-08T11:11:01;94157.03;;;21.97;42.50
55468;BME280;41332;42.702;23.200;2023-08-08T11:13:27;94157.59;;;21.59;42.17
55468;BME280;41332;42.702;23.200;2023-08-08T11:15:53;94154.94;;;21.55;43.16
55468;BME280;41332;42.702;23.200;2023-08-08T11:18:19;94153.03;;;21.45;42.70
55468;BME280;41332;42.702;23.200;2023-08-08T11:20:44;94158.78;;;21.44;42.43
55468;BME280;41332;42.702;23.200;2023-08-08T11:23:10;94143.56;;;21.33;42.48
55468;BME280;41332;42.702;23.200;2023-08-08T11:25:42;94154.97;;;21.37;44.29
55468;BME280;41332;42.702;23.200;2023-08-08T11:28:08;94150.78;;;21.36;45.05
55468;BME280;41332;42.702;23.200;2023-08-08T11:30:36;94153.41;;;21.51;45.07
55468;BME280;41332;42.702;23.200;2023-08-08T11:33:02;94140.81;;;21.48;43.03
55468;BME280;41332;42.702;23.200;2023-08-08T11:35:28;94151.47;;;21.62;45.22
55468;BME280;41332;42.702;23.200;2023-08-08T11:37:56;94145.72;;;21.71;44.69
55468;BME280;41332;42.702;23.200;2023-08-08T11:40:25;94143.50;;;21.48;43.82
55468;BME280;41332;42.702;23.200;2023-08-08T11:42:51;94148.06;;;21.54;43.59
55468;BME280;41332;42.702;23.200;2023-08-08T11:45:18;94145.75;;;21.53;44.04
55468;BME280;41332;42.702;23.200;2023-08-08T11:47:43;94131.22;;;21.65;44.02
55468;BME280;41332;42.702;23.200;2023-08-08T11:50:11;94142.31;;;21.60;44.55
55468;BME280;41332;42.702;23.200;2023-08-08T11:52:40;94135.47;;;21.48;44.03
55468;BME280;41332;42.702;23.200;2023-08-08T11:55:09;94137.41;;;21.40;41.64
55468;BME280;41332;42.702;23.200;2023-08-08T11:57:39;94131.81;;;21.05;42.76
55468;BME280;41332;42.702;23.200;2023-08-08T12:00:09;94132.53;;;21.20;44.10
55468;BME280;41332;42.702;23.200;2023-08-08T12:02:38;94118.78;;;21.18;46.18
55468;BME280;41332;42.702;23.200;2023-08-08T12:05:09;94118.34;;;21.38;44.44
55468;BME280;41332;42.702;23.200;2023-08-08T12:07:40;94130.88;;;21.52;45.70
55468;BME280;41332;42.702;23.200;2023-08-08T12:10:26;94123.63;;;21.56;42.93
55468;BME280;41332;42.702;23.200;2023-08-08T12:12:54;94117.50;;;21.52;43.66
55468;BME280;41332;42.702;23.200;2023-08-08T12:15:20;94102.63;;;21.58;44.89
55468;BME280;41332;42.702;23.200;2023-08-08T12:17:46;94110.69;;;21.44;45.49
55468;BME280;41332;42.702;23.200;2023-08-08T12:20:11;94105.66;;;21.64;45.21
55468;BME280;41332;42.702;23.200;2023-08-08T12:22:40;94108.22;;;21.82;44.17
55468;BME280;41332;42.702;23.200;2023-08-08T12:25:05;94108.63;;;21.77;45.10
55468;BME280;41332;42.702;23.200;2023-08-08T12:27:31;94101.06;;;21.64;43.32
55468;BME280;41332;42.702;23.200;2023-08-08T12:29:57;94097.63;;;21.67;42.94
55468;BME280;41332;42.702;23.200;2023-08-08T12:32:26;94088.47;;;21.61;42.35
55468;BME280;41332;42.702;23.200;2023-08-08T12:34:53;94093.47;;;21.52;44.75
55468;BME280;41332;42.702;23.200;2023-08-08T12:37:19;94091.19;;;21.47;43.75
55468;BME280;41332;42.702;23.200;2023-08-08T12:39:44;94082.38;;;21.53;47.12
55468;BME280;41332;42.702;23.200;2023-08-08T12:42:10;94094.63;;;21.54;43.55
55468;BME280;41332;42.702;23.200;2023-08-08T12:44:35;94093.84;;;21.54;43.85
55468;BME280;41332;42.702;23.200;2023-08-08T12:47:00;94092.00;;;21.40;43.97
55468;BME280;41332;42.702;23.200;2023-08-08T12:49:26;94089.34;;;21.33;44.24
55468;BME280;41332;42.702;23.200;2023-08-08T12:51:52;94095.41;;;21.44;45.71